ADDS METAR Data INFO
IDs: Format: Raw Decoded Include TAF

Data at: 0212 UTC 17 Aug 2018

PAMD 170151Z AUTO 21006KT 10SM FEW015 BKN041 OVC075 14/09 A3006 RMK AO2 RAE0052 SLP169 T01390094
PAMD 170141Z AUTO 21005KT 10SM SCT015 BKN041 OVC060 13/10 A3006 RMK AO2 RAE0052
PAMD 170124Z AUTO 15007KT 10SM BKN018 OVC055 13/10 A3006 RMK AO2 RAE0052
PAMD 170051Z AUTO 21004KT 10SM -RA OVC050 13/09 A3005 RMK AO2 RAB35 SLP167 P0000 T01330089
PAMD 170007Z AUTO 21006KT 10SM SCT021 13/09 A3005 RMK AO2
PAMD 162351Z AUTO 20007KT 10SM BKN021 BKN055 14/09 A3005 RMK AO2 SLP165 T01390094 10144 20122 53008
PAMD 162309Z AUTO 24008KT 10SM SCT021 BKN026 OVC055 13/09 A3004 RMK AO2
PAMD 162255Z AUTO 20006KT 10SM SCT023 SCT027 14/09 A3004 RMK AO2
PAMD 162251Z AUTO 20005KT 10SM BKN023 14/09 A3004 RMK AO2 SLP162 T01390089
PAMD 162249Z AUTO 20007KT 10SM BKN023 14/09 A3004 RMK AO2
PAMD 162231Z AUTO 17007KT 10SM SCT025 BKN055 13/08 A3004 RMK AO2
PAMD 162151Z AUTO 21006KT 10SM OVC021 13/09 A3003 RMK AO2 SLP159 T01330089
PAMD 162125Z AUTO VRB04KT 10SM BKN021 13/09 A3002 RMK AO2
PAMD 162051Z AUTO 22006KT 10SM FEW080 13/08 A3002 RMK AO2 SLP157 T01280083 51009
PAMD 161951Z AUTO 27003KT 10SM SCT065 12/09 A3001 RMK AO2 SLP155 T01220094
PAMD 161851Z AUTO VRB05KT 10SM OVC065 12/09 A3001 RMK AO2 SLP152 T01220094
PAMD 161751Z AUTO 27005KT 10SM OVC055 12/10 A2999 RMK AO2 SLP148 60000 T01220100 10122 20111 53007
PAMD 161712Z AUTO 27005KT 10SM FEW013 BKN032 OVC055 12/10 A2999 RMK AO2
PAMD 161651Z AUTO 27005KT 10SM FEW013 OVC025 11/10 A2999 RMK AO2 SLP145 T01110100
PAMD 161634Z AUTO 26005KT 10SM BKN025 OVC055 11/10 A2998 RMK AO2
PAMD 161551Z AUTO 23004KT 10SM OVC060 11/10 A2998 RMK AO2 SLP142 T01110100
PAMD 161501Z AUTO 21005KT 10SM SCT017 OVC050 11/09 A2998 RMK AO2
PAMD 161451Z AUTO 21005KT 10SM BKN015 OVC050 11/09 A2997 RMK AO2 SLP140 60000 T01110094 53002
PAMD 161351Z AUTO 21005KT 10SM OVC050 11/10 A2997 RMK AO2 RAB1255E05 SLP140 P0000 T01110100
PAMD 161251Z AUTO 21006KT 9SM FEW027 BKN044 OVC060 11/10 A2997 RMK AO2 SLP138 T01110100
PAMD 161239Z AUTO 20005KT 10SM SCT028 BKN033 OVC060 11/10 A2996 RMK AO2
PAMD 161234Z AUTO 20005KT 10SM BKN028 BKN033 OVC040 11/10 A2997 RMK AO2
PAMD 161230Z AUTO 19005KT 10SM SCT028 OVC036 11/10 A2997 RMK AO2
PAMD 161220Z AUTO 20005KT 10SM SCT021 BKN028 OVC036 11/10 A2997 RMK AO2
PAMD 161210Z AUTO 19004KT 10SM SCT019 BKN031 OVC055 11/10 A2997 RMK AO2
PAMD 161154Z AUTO 21005KT 10SM BKN019 OVC047 11/10 A2997 RMK AO2
PAMD 161151Z AUTO 21004KT 10SM SCT019 OVC047 11/10 A2997 RMK AO2 SLP139 70002 T01110100 10122 20111 58002
PAMD 161142Z AUTO 24004KT 10SM SCT021 OVC047 11/10 A2997 RMK AO2
PAMD 161136Z AUTO 23004KT 10SM BKN021 OVC049 11/10 A2997 RMK AO2
PAMD 161127Z AUTO 23005KT 10SM SCT021 OVC048 11/10 A2997 RMK AO2
PAMD 161054Z AUTO 00000KT 10SM BKN019 BKN120 11/10 A2997 RMK AO2
PAMD 161051Z AUTO 25003KT 10SM SCT019 BKN120 11/10 A2997 RMK AO2 SLP139 T01110100
PAMD 161042Z AUTO 25003KT 10SM SCT019 11/10 A2997 RMK AO2
PAMD 161037Z AUTO 24003KT 10SM BKN019 11/10 A2997 RMK AO2
PAMD 160951Z AUTO 00000KT 10SM FEW023 SCT075 12/09 A2997 RMK AO2 SLP141 T01170094
PAMD 160851Z AUTO 00000KT 10SM OVC065 12/09 A2997 RMK AO2 SLP141 T01220089 56004
PAMD 160751Z AUTO 00000KT 10SM FEW022 OVC070 12/09 A2998 RMK AO2 SLP142 T01220094 401440106
PAMD 160735Z AUTO 00000KT 10SM SCT022 BKN038 OVC065 12/09 A2998 RMK AO2
PAMD 160729Z AUTO 00000KT 10SM BKN022 OVC060 12/09 A2998 RMK AO2
PAMD 160651Z AUTO 00000KT 10SM OVC060 12/09 A2998 RMK AO2 SLP143 T01170094
PAMD 160551Z AUTO 12004KT 10SM OVC060 12/10 A2999 RMK AO2 SLP145 60002 T01170100 10139 20117 55000
PAMD 160451Z AUTO 14004KT 10SM FEW022 SCT034 OVC060 12/10 A2998 RMK AO2 SLP144 T01220100
PAMD 160351Z AUTO 09006KT 10SM OVC060 12/10 A2998 RMK AO2 SLP143 T01220100
PAMD 160251Z AUTO 10008KT 10SM SCT020 OVC060 12/11 A2999 RMK AO2 SLP145 60002 T01220106 58010
PAMD 160243Z AUTO 10009KT 10SM SCT020 BKN031 OVC060 12/11 A2999 RMK AO2
PAMD 160230Z AUTO 10007KT 10SM BKN020 BKN032 OVC060 13/11 A2999 RMK AO2
PAMD 160215Z AUTO 08006KT 10SM SCT020 OVC060 13/11 A2999 RMK AO2
PAMD 160151Z AUTO 07005KT 10SM BKN020 BKN025 OVC065 13/11 A3000 RMK AO2 RAE16 SLP148 P0002 T01280106
PAMD 160148Z AUTO 05004KT 10SM SCT020 BKN025 OVC065 13/11 A3000 RMK AO2 RAE16 P0002
PAMD 160126Z AUTO 05003KT 10SM SCT020 SCT027 OVC065 12/10 A3000 RMK AO2 RAE16 P0002
PAMD 160051Z AUTO 08007KT 5SM -RA BR SCT021 BKN027 OVC044 12/10 A3001 RMK AO2 RAB46 SLP153 P0000 T01220100
PAMD 160041Z AUTO 09006KT 10SM BKN021 BKN039 OVC060 13/09 A3001 RMK AO2
PAMD 152351Z AUTO 11004KT 10SM SCT037 BKN048 OVC060 13/09 A3002 RMK AO2 SLP155 T01330089 10144 20128 50005
PAMD 152251Z AUTO 13007KT 10SM CLR 14/09 A3002 RMK AO2 SLP156 T01390089
PAMD 152151Z AUTO 15009KT 10SM CLR 13/08 A3001 RMK AO2 SLP154 T01330083
PAMD 152051Z AUTO 19008KT 10SM CLR 14/09 A3000 RMK AO2 SLP150 T01390089 51007
PAMD 151951Z AUTO 19010KT 10SM CLR 13/09 A3000 RMK AO2 SLP149 T01330089
PAMD 151851Z AUTO 19011G17KT 10SM FEW019 13/10 A2998 RMK AO2 SLP145 T01330100
PAMD 151804Z AUTO 19009KT 10SM SCT019 13/09 A2998 RMK AO2
PAMD 151751Z AUTO 19010KT 10SM BKN019 12/10 A2998 RMK AO2 SLP143 T01220100 10122 20106 53013
PAMD 151651Z AUTO 20008KT 10SM BKN021 12/09 A2996 RMK AO2 SLP138 T01220094
PAMD 151637Z AUTO 20008KT 10SM SCT018 12/09 A2996 RMK AO2
PAMD 151614Z AUTO 21009KT 10SM BKN016 12/10 A2996 RMK AO2
PAMD 151551Z AUTO 19007KT 10SM FEW014 SCT050 11/09 A2995 RMK AO2 SLP134 T01110094
PAMD 151451Z AUTO 20008KT 9SM FEW013 11/09 A2994 RMK AO2 SLP130 T01060094 52005